createdAt,value
2022-10-01T00:00:20.734Z,3.22
2022-10-01T00:02:56.725Z,3.60
2022-10-01T00:05:25.589Z,3.38
2022-10-01T00:07:52.348Z,3.40
2022-10-01T00:10:19.427Z,4.10
2022-10-01T00:12:51.264Z,3.90
2022-10-01T00:15:21.986Z,4.45
2022-10-01T00:17:48.885Z,4.13
2022-10-01T00:20:15.707Z,4.50
2022-10-01T00:22:42.386Z,4.80
2022-10-01T00:25:11.108Z,4.90
2022-10-01T00:27:42.987Z,4.45
2022-10-01T00:30:13.346Z,4.85
2022-10-01T00:32:41.255Z,4.43
2022-10-01T00:35:12.721Z,5.30
2022-10-01T00:37:39.368Z,4.70
2022-10-01T00:40:06.799Z,4.53
2022-10-01T00:42:33.764Z,5.15
2022-10-01T00:45:03.348Z,4.68
2022-10-01T00:47:44.331Z,5.05
2022-10-01T00:50:26.406Z,5.07
2022-10-01T00:53:07.802Z,5.10
2022-10-01T00:55:37.688Z,5.82
2022-10-01T00:58:05.208Z,6.22
2022-10-01T01:00:40.640Z,6.03
2022-10-01T01:03:10.275Z,5.45
2022-10-01T01:05:36.919Z,4.68
2022-10-01T01:08:04.406Z,4.97
2022-10-01T01:10:40.312Z,4.32
2022-10-01T01:13:31.930Z,5.03
2022-10-01T01:16:22.059Z,5.15
2022-10-01T01:19:07.365Z,5.03
2022-10-01T01:21:53.830Z,5.65
2022-10-01T01:25:11.699Z,5.53
2022-10-01T01:27:42.665Z,5.03
2022-10-01T01:30:16.024Z,5.05
2022-10-01T01:32:53.100Z,4.40
2022-10-01T01:35:32.419Z,5.80
2022-10-01T01:38:05.742Z,5.20
2022-10-01T01:40:36.877Z,4.70
2022-10-01T01:43:09.028Z,5.28
2022-10-01T01:45:40.301Z,5.32
2022-10-01T01:48:10.089Z,5.70
2022-10-01T01:50:51.930Z,5.10
2022-10-01T01:53:20.302Z,5.47
2022-10-01T01:55:49.402Z,5.43
2022-10-01T01:58:20.159Z,5.72
2022-10-01T02:00:52.574Z,4.90
2022-10-01T02:03:22.049Z,5.63
2022-10-01T02:06:10.195Z,5.38
2022-10-01T02:08:46.538Z,5.28
2022-10-01T02:11:39.047Z,5.13
2022-10-01T02:14:24.011Z,5.30
2022-10-01T02:17:01.568Z,5.95
2022-10-01T02:19:34.543Z,5.20
2022-10-01T02:22:22.614Z,5.28
2022-10-01T02:24:59.266Z,4.97
2022-10-01T02:30:15.416Z,5.13
2022-10-01T02:32:45.589Z,5.13
2022-10-01T02:35:16.802Z,5.55
2022-10-01T02:37:45.988Z,6.30
2022-10-01T02:40:16.572Z,5.07
2022-10-01T02:42:51.981Z,5.20
2022-10-01T02:45:24.979Z,5.47
2022-10-01T02:48:08.072Z,5.70
2022-10-01T02:50:42.738Z,4.95
2022-10-01T02:53:17.104Z,5.13
2022-10-01T02:55:46.044Z,5.70
2022-10-01T02:58:12.979Z,5.28
2022-10-01T03:00:39.561Z,5.55
2022-10-01T03:03:08.817Z,5.38
2022-10-01T03:05:35.487Z,5.63
2022-10-01T03:08:02.757Z,5.28
2022-10-01T03:10:29.539Z,5.43
2022-10-01T03:12:56.550Z,5.68
2022-10-01T03:15:24.278Z,5.65
2022-10-01T03:17:51.949Z,5.30
2022-10-01T03:20:18.833Z,5.45
2022-10-01T03:22:46.980Z,4.82
2022-10-01T03:25:15.675Z,5.95
2022-10-01T03:27:42.904Z,5.13
2022-10-01T03:30:10.465Z,4.70
2022-10-01T03:32:37.174Z,5.70
2022-10-01T03:35:04.114Z,5.25
2022-10-01T03:37:30.697Z,5.97
2022-10-01T03:39:57.455Z,4.55
2022-10-01T03:42:23.950Z,4.68
2022-10-01T03:44:50.739Z,4.53
2022-10-01T03:47:17.465Z,4.75
2022-10-01T03:49:44.182Z,4.93
2022-10-01T03:52:10.794Z,4.43
2022-10-01T03:54:38.937Z,5.05
2022-10-01T03:57:06.115Z,4.75
2022-10-01T03:59:32.974Z,4.63
2022-10-01T04:01:59.893Z,4.45
2022-10-01T04:04:29.887Z,3.95
2022-10-01T04:06:56.496Z,4.97
2022-10-01T04:09:24.220Z,4.45
2022-10-01T04:11:50.909Z,4.95
2022-10-01T04:14:18.547Z,4.97
2022-10-01T04:16:45.272Z,4.25
2022-10-01T04:19:11.866Z,4.13
2022-10-01T04:21:39.759Z,5.03
2022-10-01T04:24:06.662Z,5.30
2022-10-01T04:26:33.277Z,4.93
2022-10-01T04:29:00.021Z,5.05
2022-10-01T04:31:26.943Z,5.50
2022-10-01T04:33:56.110Z,5.30
2022-10-01T04:36:24.503Z,5.25
2022-10-01T04:39:00.826Z,5.30
2022-10-01T04:41:30.833Z,5.50
2022-10-01T04:43:59.450Z,6.28
2022-10-01T04:46:26.405Z,5.00
2022-10-01T04:48:56.358Z,5.20
2022-10-01T04:51:23.102Z,5.60
2022-10-01T04:53:49.792Z,5.25
2022-10-01T04:56:17.502Z,5.38
2022-10-01T04:58:44.231Z,5.57
2022-10-01T05:01:10.916Z,5.72
2022-10-01T05:03:37.530Z,5.78
2022-10-01T05:06:04.190Z,6.05
2022-10-01T05:08:31.465Z,5.07
2022-10-01T05:11:00.528Z,6.40
2022-10-01T05:13:30.349Z,5.45
2022-10-01T05:15:57.781Z,5.43
2022-10-01T05:18:26.900Z,5.28
2022-10-01T05:20:59.296Z,6.57
2022-10-01T05:23:26.032Z,5.57
2022-10-01T05:25:55.535Z,5.03
2022-10-01T05:28:35.024Z,5.53
2022-10-01T05:31:04.294Z,5.63
2022-10-01T05:33:31.904Z,6.00
2022-10-01T05:35:59.020Z,5.00
2022-10-01T05:38:26.218Z,5.25
2022-10-01T05:40:52.789Z,5.07
2022-10-01T05:43:19.557Z,5.53
2022-10-01T05:45:46.317Z,5.43
2022-10-01T05:48:13.306Z,5.07
2022-10-01T05:50:44.269Z,6.18
2022-10-01T05:53:12.154Z,5.93
2022-10-01T05:55:39.837Z,5.50
2022-10-01T05:58:12.709Z,6.03
2022-10-01T06:00:47.094Z,6.72
2022-10-01T06:03:15.370Z,5.50
2022-10-01T06:05:46.715Z,5.32
2022-10-01T06:08:15.912Z,5.40
2022-10-01T06:13:35.869Z,5.40
2022-10-01T06:16:12.658Z,6.13
2022-10-01T06:18:49.154Z,5.05
2022-10-01T06:21:16.090Z,5.80
2022-10-01T06:23:45.045Z,7.57
2022-10-01T06:26:22.395Z,5.88
2022-10-01T06:28:55.929Z,5.40
2022-10-01T06:31:25.552Z,5.20
2022-10-01T06:34:00.940Z,6.72
2022-10-01T06:36:30.546Z,5.30
2022-10-01T06:39:00.706Z,5.63
2022-10-01T06:41:30.434Z,5.22
2022-10-01T06:44:12.316Z,5.30
2022-10-01T06:46:41.669Z,5.97
2022-10-01T06:52:39.860Z,4.90
2022-10-01T06:55:13.112Z,5.78
2022-10-01T06:57:42.636Z,5.57
2022-10-01T07:00:14.325Z,5.25
2022-10-01T07:02:43.672Z,6.22
2022-10-01T07:05:12.278Z,5.30
2022-10-01T07:07:41.956Z,5.15
2022-10-01T07:10:10.280Z,4.47
2022-10-01T07:13:00.059Z,5.45
2022-10-01T07:16:06.739Z,5.28
2022-10-01T07:18:55.754Z,5.30
2022-10-01T07:21:37.771Z,4.88
2022-10-01T07:24:35.069Z,6.10
2022-10-01T07:31:16.981Z,5.05
2022-10-01T07:33:40.806Z,4.57
2022-10-01T07:43:54.777Z,5.03
2022-10-01T07:47:24.150Z,4.28
2022-10-01T07:49:35.140Z,4.80
2022-10-01T07:52:12.403Z,4.35
2022-10-01T07:54:56.125Z,3.80
2022-10-01T07:57:28.873Z,4.35
2022-10-01T08:00:24.186Z,4.00
2022-10-01T08:02:56.887Z,3.90
2022-10-01T08:06:17.903Z,3.72
2022-10-01T08:08:50.769Z,3.35
2022-10-01T08:11:26.105Z,4.82
2022-10-01T08:14:00.180Z,3.88
2022-10-01T08:16:33.640Z,3.90
2022-10-01T08:19:28.749Z,3.90
2022-10-01T08:22:14.562Z,3.40
2022-10-01T08:24:41.284Z,3.10
2022-10-01T08:27:07.970Z,3.22
2022-10-01T08:29:47.970Z,3.70
2022-10-01T08:32:14.775Z,3.47
2022-10-01T08:34:43.552Z,3.42
2022-10-01T08:37:18.485Z,3.65
2022-10-01T08:39:52.511Z,4.10
2022-10-01T08:43:14.053Z,3.75
2022-10-01T08:45:59.045Z,4.32
2022-10-01T08:48:40.880Z,3.65
2022-10-01T08:51:24.223Z,3.55
2022-10-01T08:53:59.531Z,3.75
2022-10-01T08:56:39.730Z,3.58
2022-10-01T08:59:27.517Z,4.03
2022-10-01T09:02:08.168Z,4.05
2022-10-01T09:04:44.372Z,4.65
2022-10-01T09:07:58.977Z,3.97
2022-10-01T09:10:57.467Z,3.58
2022-10-01T09:13:52.972Z,3.40
2022-10-01T09:16:29.596Z,3.55
2022-10-01T09:19:20.053Z,3.50
2022-10-01T09:21:52.785Z,3.70
2022-10-01T09:24:47.986Z,3.90
2022-10-01T09:27:23.434Z,3.67
2022-10-01T09:29:56.442Z,3.65
2022-10-01T09:32:27.762Z,3.60
2022-10-01T09:34:54.826Z,3.22
2022-10-01T09:38:08.093Z,3.70
2022-10-01T09:40:50.174Z,3.60
2022-10-01T09:43:20.086Z,3.72
2022-10-01T09:45:50.036Z,3.20
2022-10-01T09:49:02.335Z,3.25
2022-10-01T09:51:45.770Z,3.42
2022-10-01T09:54:37.709Z,3.22
2022-10-01T09:57:19.166Z,4.07
2022-10-01T09:59:57.271Z,3.50
2022-10-01T10:02:32.235Z,3.88
2022-10-01T10:05:10.556Z,3.60
2022-10-01T10:08:03.291Z,3.38
2022-10-01T10:11:12.688Z,3.25
2022-10-01T10:13:45.446Z,3.28
2022-10-01T10:16:36.711Z,3.63
2022-10-01T10:19:10.408Z,3.40
2022-10-01T10:21:42.360Z,3.20
2022-10-01T10:24:24.292Z,3.67
2022-10-01T10:27:06.427Z,3.25
2022-10-01T10:29:40.486Z,3.53
2022-10-01T10:32:18.028Z,3.38
2022-10-01T10:35:05.591Z,3.38
2022-10-01T10:37:38.677Z,4.13
2022-10-01T10:40:11.157Z,3.38
2022-10-01T10:43:07.119Z,3.78
2022-10-01T10:45:40.445Z,3.38
2022-10-01T10:48:16.912Z,3.28
2022-10-01T10:50:46.916Z,3.92
2022-10-01T10:53:49.089Z,3.10
2022-10-01T10:56:23.909Z,4.22
2022-10-01T10:58:54.572Z,4.63
2022-10-01T11:01:29.787Z,3.58
2022-10-01T11:04:00.050Z,3.17
2022-10-01T11:06:28.635Z,3.30
2022-10-01T11:09:08.230Z,3.28
2022-10-01T11:11:44.222Z,3.13
2022-10-01T11:14:38.965Z,3.25
2022-10-01T11:17:21.095Z,3.20
2022-10-01T11:19:56.747Z,3.05
2022-10-01T11:22:44.330Z,3.35
2022-10-01T11:25:22.528Z,3.45
2022-10-01T11:28:09.788Z,3.20
2022-10-01T11:30:54.316Z,3.40
2022-10-01T11:33:33.030Z,3.55
2022-10-01T11:36:11.740Z,3.85
2022-10-01T11:39:03.079Z,3.33
2022-10-01T11:41:50.267Z,3.60
2022-10-01T11:44:24.679Z,3.75
2022-10-01T11:47:03.089Z,3.55
2022-10-01T11:49:42.573Z,2.83
2022-10-01T11:52:21.186Z,3.20
2022-10-01T11:55:22.870Z,3.00
2022-10-01T11:58:14.743Z,2.72
2022-10-01T12:00:52.326Z,3.53
2022-10-01T12:03:25.309Z,2.92
2022-10-01T12:05:53.536Z,3.47
2022-10-01T12:08:29.645Z,3.35
2022-10-01T12:11:09.818Z,3.72
2022-10-01T12:13:41.235Z,3.30
2022-10-01T12:16:31.574Z,3.13
2022-10-01T12:19:14.776Z,4.35
2022-10-01T12:21:46.856Z,3.33
2022-10-01T12:24:18.671Z,3.38
2022-10-01T12:26:57.910Z,3.50
2022-10-01T12:29:33.319Z,3.47
2022-10-01T12:31:59.751Z,3.38
2022-10-01T12:34:54.340Z,2.90
2022-10-01T12:37:40.050Z,3.03
2022-10-01T12:40:21.915Z,3.35
2022-10-01T12:43:04.267Z,3.50
2022-10-01T12:46:02.892Z,3.17
2022-10-01T12:48:49.291Z,2.60
2022-10-01T12:51:21.769Z,3.20
2022-10-01T12:54:21.030Z,3.55
2022-10-01T12:57:17.346Z,2.40
2022-10-01T13:00:10.668Z,2.90
2022-10-01T13:02:53.111Z,3.35
2022-10-01T13:05:50.710Z,3.50
2022-10-01T13:08:17.291Z,3.67
2022-10-01T13:10:50.083Z,3.20
2022-10-01T13:13:22.950Z,3.30
2022-10-01T13:15:58.741Z,2.78
2022-10-01T13:18:31.430Z,2.88
2022-10-01T13:21:30.423Z,4.43
2022-10-01T13:24:00.865Z,3.90
2022-10-01T13:26:43.247Z,3.97
2022-10-01T13:29:35.042Z,4.13
2022-10-01T13:32:04.451Z,3.50
2022-10-01T13:34:39.981Z,3.53
2022-10-01T13:37:11.843Z,3.45
2022-10-01T13:39:42.055Z,3.60
2022-10-01T13:42:23.113Z,3.40
2022-10-01T13:45:24.535Z,2.95
2022-10-01T13:47:51.308Z,3.40
2022-10-01T13:50:24.338Z,2.78
2022-10-01T13:52:52.449Z,3.50
2022-10-01T13:55:30.574Z,4.47
2022-10-01T13:58:20.494Z,4.10
2022-10-01T14:00:56.319Z,3.25
2022-10-01T14:03:50.669Z,3.13
2022-10-01T14:06:24.447Z,3.53
2022-10-01T14:09:13.154Z,2.97
2022-10-01T14:12:03.190Z,3.00
2022-10-01T14:14:54.024Z,2.92
2022-10-01T14:17:31.589Z,4.45
2022-10-01T14:20:00.548Z,3.30
2022-10-01T14:23:01.745Z,3.40
2022-10-01T14:26:01.958Z,3.22
2022-10-01T14:28:34.570Z,4.22
2022-10-01T14:31:07.157Z,3.53
2022-10-01T14:34:06.440Z,2.88
2022-10-01T14:36:42.679Z,3.15
2022-10-01T14:39:27.848Z,3.20
2022-10-01T14:41:56.798Z,4.40
2022-10-01T14:44:29.558Z,3.63
2022-10-01T14:46:57.979Z,2.90
2022-10-01T14:49:32.356Z,2.97
2022-10-01T14:52:03.840Z,3.15
2022-10-01T14:54:37.336Z,3.65
2022-10-01T14:57:15.101Z,2.70
2022-10-01T14:59:42.080Z,2.53
2022-10-01T15:02:20.817Z,2.95
2022-10-01T15:04:50.764Z,3.05
2022-10-01T15:07:17.840Z,3.50
2022-10-01T15:09:45.486Z,3.92
2022-10-01T15:12:13.644Z,2.90
2022-10-01T15:14:42.520Z,2.75
2022-10-01T15:17:18.210Z,2.80
2022-10-01T15:19:47.404Z,2.35
2022-10-01T15:22:16.307Z,3.17
2022-10-01T15:24:49.035Z,2.90
2022-10-01T15:27:19.106Z,2.67
2022-10-01T15:29:46.614Z,3.17
2022-10-01T15:32:16.598Z,3.85
2022-10-01T15:34:48.528Z,2.95
2022-10-01T15:37:32.549Z,3.90
2022-10-01T15:40:00.839Z,5.55
2022-10-01T15:42:31.532Z,6.85
2022-10-01T15:45:07.106Z,2.70
2022-10-01T15:47:38.577Z,4.10
2022-10-01T15:50:15.232Z,4.82
2022-10-01T15:52:51.123Z,4.25
2022-10-01T15:55:21.677Z,5.28
2022-10-01T15:58:06.737Z,4.60
2022-10-01T16:00:52.746Z,3.50
2022-10-01T16:03:27.347Z,5.47
2022-10-01T16:05:55.294Z,5.57
2022-10-01T16:08:25.660Z,3.40
2022-10-01T16:11:18.692Z,3.53
2022-10-01T16:13:48.895Z,4.47
2022-10-01T16:16:25.043Z,4.40
2022-10-01T16:19:20.216Z,4.22
2022-10-01T16:22:19.203Z,4.00
2022-10-01T16:25:26.166Z,2.60
2022-10-01T16:28:03.956Z,2.65
2022-10-01T16:30:32.710Z,2.92
2022-10-01T16:33:02.441Z,3.85
2022-10-01T16:35:32.635Z,2.90
2022-10-01T16:37:59.474Z,4.40
2022-10-01T16:40:28.295Z,3.47
2022-10-01T16:42:55.526Z,2.78
2022-10-01T16:45:27.716Z,3.00
2022-10-01T16:47:56.757Z,3.03
2022-10-01T16:50:24.190Z,2.97
2022-10-01T16:52:56.970Z,3.35
2022-10-01T16:55:31.384Z,6.63
2022-10-01T16:57:58.005Z,3.13
2022-10-01T17:00:26.678Z,2.72
2022-10-01T17:02:54.699Z,2.60
2022-10-01T17:05:32.960Z,2.60
2022-10-01T17:08:01.179Z,3.30
2022-10-01T17:10:33.731Z,3.28
2022-10-01T17:13:00.314Z,3.13
2022-10-01T17:15:28.092Z,3.22
2022-10-01T17:17:55.775Z,2.75
2022-10-01T17:20:23.548Z,2.80
2022-10-01T17:22:50.609Z,3.00
2022-10-01T17:25:20.077Z,2.30
2022-10-01T17:27:46.941Z,2.70
2022-10-01T17:30:14.331Z,2.50
2022-10-01T17:32:43.039Z,3.15
2022-10-01T17:35:14.701Z,2.95
2022-10-01T17:37:41.986Z,6.30
2022-10-01T17:40:09.821Z,4.13
2022-10-01T17:42:36.709Z,3.17
2022-10-01T17:45:06.534Z,2.60
2022-10-01T17:47:33.823Z,2.70
2022-10-01T17:50:00.464Z,2.88
2022-10-01T17:52:26.976Z,2.63
2022-10-01T17:54:53.535Z,2.30
2022-10-01T17:57:20.165Z,2.90
2022-10-01T17:59:46.708Z,2.38
2022-10-01T18:02:36.505Z,2.88
2022-10-01T18:05:01.192Z,2.40
2022-10-01T18:07:27.765Z,2.88
2022-10-01T18:09:54.465Z,3.63
2022-10-01T18:12:21.015Z,3.20
2022-10-01T18:14:48.700Z,3.15
2022-10-01T18:17:15.545Z,3.15
2022-10-01T18:19:57.590Z,3.00
2022-10-01T18:22:24.660Z,2.95
2022-10-01T18:24:51.190Z,3.00
2022-10-01T18:27:18.805Z,3.08
2022-10-01T18:29:45.396Z,2.80
2022-10-01T18:32:21.700Z,3.10
2022-10-01T18:34:58.886Z,3.05
2022-10-01T18:37:37.571Z,3.33
2022-10-01T18:40:12.429Z,2.53
2022-10-01T18:42:51.328Z,2.90
2022-10-01T18:45:40.775Z,3.47
2022-10-01T18:48:13.397Z,2.97
2022-10-01T18:50:58.202Z,3.00
2022-10-01T18:53:34.624Z,3.20
2022-10-01T18:56:20.929Z,3.80
2022-10-01T18:59:05.793Z,3.50
2022-10-01T19:02:09.872Z,3.72
2022-10-01T19:05:05.729Z,3.13
2022-10-01T19:08:01.194Z,3.17
2022-10-01T19:10:37.572Z,3.30
2022-10-01T19:13:17.952Z,3.97
2022-10-01T19:15:54.395Z,3.05
2022-10-01T19:21:21.924Z,3.15
2022-10-01T19:24:10.354Z,3.10
2022-10-01T19:27:04.573Z,3.15
2022-10-01T19:29:55.102Z,2.72
2022-10-01T19:32:25.715Z,3.17
2022-10-01T19:35:00.595Z,3.05
2022-10-01T19:37:41.154Z,2.92
2022-10-01T19:40:30.911Z,3.22
2022-10-01T19:43:16.559Z,3.35
2022-10-01T19:46:08.956Z,3.03
2022-10-01T19:48:51.002Z,3.13
2022-10-01T19:51:23.417Z,3.42
2022-10-01T19:53:59.953Z,3.08
2022-10-01T19:56:32.353Z,2.85
2022-10-01T19:59:10.624Z,2.70
2022-10-01T20:01:41.858Z,2.85
2022-10-01T20:04:18.479Z,2.80
2022-10-01T20:06:46.866Z,2.53
2022-10-01T20:09:23.242Z,2.45
2022-10-01T20:12:04.585Z,2.40
2022-10-01T20:15:00.188Z,2.75
2022-10-01T20:17:51.087Z,2.00
2022-10-01T20:20:26.761Z,1.85
2022-10-01T20:23:36.801Z,2.70
2022-10-01T20:26:06.675Z,2.88
2022-10-01T20:29:06.016Z,2.50
2022-10-01T20:31:57.308Z,2.53
2022-10-01T20:35:01.999Z,2.40
2022-10-01T20:38:11.110Z,1.70
2022-10-01T20:40:44.163Z,2.10
2022-10-01T20:43:19.789Z,2.15
2022-10-01T20:45:50.005Z,2.23
2022-10-01T20:48:27.635Z,2.75
2022-10-01T20:51:01.652Z,3.17
2022-10-01T20:53:54.042Z,2.55
2022-10-01T20:56:40.335Z,2.55
2022-10-01T20:59:25.393Z,2.30
2022-10-01T21:02:13.613Z,2.80
2022-10-01T21:04:48.675Z,2.70
2022-10-01T21:07:50.021Z,2.50
2022-10-01T21:10:28.919Z,3.13
2022-10-01T21:13:14.315Z,2.45
2022-10-01T21:16:25.057Z,2.50
2022-10-01T21:19:17.460Z,2.40
2022-10-01T21:22:23.166Z,2.45
2022-10-01T21:24:49.650Z,2.60
2022-10-01T21:27:24.017Z,2.65
2022-10-01T21:30:14.210Z,2.63
2022-10-01T21:33:00.080Z,3.08
2022-10-01T21:35:43.888Z,3.28
2022-10-01T21:38:29.271Z,3.00
2022-10-01T21:41:38.590Z,2.67
2022-10-01T21:44:41.710Z,2.60
2022-10-01T21:47:22.427Z,2.78
2022-10-01T21:49:54.919Z,2.60
2022-10-01T21:52:21.404Z,2.88
2022-10-01T21:55:14.007Z,2.97
2022-10-01T21:57:51.479Z,3.67
2022-10-01T22:00:26.220Z,2.85
2022-10-01T22:02:53.197Z,3.33
2022-10-01T22:05:34.298Z,2.90
2022-10-01T22:08:16.003Z,3.20
2022-10-01T22:10:46.456Z,3.25
2022-10-01T22:13:22.429Z,3.85
2022-10-01T22:15:53.453Z,3.08
2022-10-01T22:18:45.846Z,3.20
2022-10-01T22:21:19.858Z,2.90
2022-10-01T22:23:52.666Z,3.17
2022-10-01T22:26:23.703Z,3.45
2022-10-01T22:28:53.920Z,3.83
2022-10-01T22:31:27.743Z,3.70
2022-10-01T22:34:10.865Z,3.50
2022-10-01T22:37:17.086Z,3.63
2022-10-01T22:39:55.604Z,3.78
2022-10-01T22:42:46.688Z,3.35
2022-10-01T22:45:15.782Z,3.17
2022-10-01T22:48:09.400Z,3.30
2022-10-01T22:50:49.447Z,3.53
2022-10-01T22:53:34.090Z,3.85
2022-10-01T22:56:00.654Z,3.50
2022-10-01T22:58:35.797Z,3.70
2022-10-01T23:01:40.012Z,3.95
2022-10-01T23:04:18.578Z,3.85
2022-10-01T23:07:01.438Z,3.55
2022-10-01T23:10:08.011Z,3.90
2022-10-01T23:12:40.935Z,3.38
2022-10-01T23:15:19.049Z,3.70
2022-10-01T23:18:04.699Z,3.40
2022-10-01T23:20:43.677Z,4.35
2022-10-01T23:23:22.400Z,3.88
2022-10-01T23:26:31.329Z,3.53
2022-10-01T23:29:06.843Z,3.92
2022-10-01T23:32:11.394Z,3.47
2022-10-01T23:34:58.146Z,3.40
2022-10-01T23:37:51.770Z,4.32
2022-10-01T23:40:21.144Z,3.72
2022-10-01T23:42:56.730Z,4.30
2022-10-01T23:45:34.946Z,3.03
2022-10-01T23:48:13.241Z,3.53
2022-10-01T23:50:52.102Z,3.15
2022-10-01T23:53:28.263Z,3.95
2022-10-01T23:56:26.341Z,3.88
2022-10-01T23:59:03.291Z,3.70
